createdAt,value
2024-01-11T00:01:47.685Z,43.75
2024-01-11T00:04:14.450Z,48.17
2024-01-11T00:06:41.557Z,35.10
2024-01-11T00:09:08.028Z,32.35
2024-01-11T00:11:34.770Z,45.83
2024-01-11T00:14:01.254Z,46.22
2024-01-11T00:16:27.933Z,49.33
2024-01-11T00:18:54.545Z,45.13
2024-01-11T00:21:21.026Z,44.70
2024-01-11T00:23:47.656Z,41.83
2024-01-11T00:26:14.604Z,42.67
2024-01-11T00:28:41.126Z,45.65
2024-01-11T00:31:07.664Z,42.20
2024-01-11T00:33:34.304Z,39.85
2024-01-11T00:36:00.952Z,44.03
2024-01-11T00:38:27.479Z,42.40
2024-01-11T00:40:54.695Z,46.63
2024-01-11T00:43:21.108Z,43.47
2024-01-11T00:45:47.764Z,37.78
2024-01-11T00:48:14.463Z,35.40
2024-01-11T00:50:41.105Z,43.08
2024-01-11T00:53:07.759Z,48.08
2024-01-11T00:55:34.686Z,48.40
2024-01-11T00:58:01.292Z,45.20
2024-01-11T01:00:28.123Z,40.77
2024-01-11T01:02:55.037Z,41.20
2024-01-11T01:05:21.568Z,45.30
2024-01-11T01:07:48.108Z,44.90
2024-01-11T01:10:14.689Z,44.28
2024-01-11T01:12:41.113Z,36.23
2024-01-11T01:15:07.962Z,43.03
2024-01-11T01:17:34.875Z,38.33
2024-01-11T01:20:01.533Z,45.63
2024-01-11T01:22:28.068Z,41.45
2024-01-11T01:24:55.048Z,39.57
2024-01-11T01:27:21.588Z,38.45
2024-01-11T01:29:47.996Z,40.03
2024-01-11T01:32:14.763Z,39.53
2024-01-11T01:34:41.220Z,41.63
2024-01-11T01:37:07.738Z,37.00
2024-01-11T01:39:34.267Z,40.92
2024-01-11T01:42:00.739Z,48.20
2024-01-11T01:44:27.307Z,42.35
2024-01-11T01:46:54.249Z,52.20
2024-01-11T01:49:23.844Z,42.20
2024-01-11T01:51:51.220Z,42.08
2024-01-11T01:54:18.041Z,41.10
2024-01-11T01:56:44.546Z,45.45
2024-01-11T01:59:11.950Z,41.10
2024-01-11T02:01:38.779Z,38.70
2024-01-11T02:04:05.772Z,39.47
2024-01-11T02:06:35.881Z,39.95
2024-01-11T02:09:04.921Z,36.67
2024-01-11T02:11:31.553Z,44.35
2024-01-11T02:13:58.837Z,41.20
2024-01-11T02:16:25.288Z,45.10
2024-01-11T02:18:51.974Z,43.50
2024-01-11T02:21:18.686Z,45.33
2024-01-11T02:23:48.210Z,49.20
2024-01-11T02:26:15.960Z,45.13
2024-01-11T02:28:46.078Z,40.17
2024-01-11T02:31:13.638Z,50.90
2024-01-11T02:33:40.752Z,46.15
2024-01-11T02:36:07.626Z,39.28
2024-01-11T02:38:34.817Z,36.83
2024-01-11T02:41:01.334Z,45.83
2024-01-11T02:43:28.128Z,44.15
2024-01-11T02:45:57.643Z,39.92
2024-01-11T02:48:28.312Z,32.17
2024-01-11T02:50:54.926Z,37.90
2024-01-11T02:53:21.708Z,40.08
2024-01-11T02:55:48.345Z,35.65
2024-01-11T02:58:14.785Z,54.40
2024-01-11T03:00:41.677Z,37.90
2024-01-11T03:03:08.262Z,39.70
2024-01-11T03:05:34.985Z,38.72
2024-01-11T03:08:01.711Z,34.30
2024-01-11T03:10:28.480Z,36.30
2024-01-11T03:12:54.965Z,44.45
2024-01-11T03:15:21.435Z,37.88
2024-01-11T03:17:48.112Z,39.25
2024-01-11T03:20:15.012Z,41.05
2024-01-11T03:22:46.308Z,44.03
2024-01-11T03:25:12.851Z,41.45
2024-01-11T03:27:39.349Z,33.42
2024-01-11T03:30:06.257Z,40.83
2024-01-11T03:32:32.915Z,42.67
2024-01-11T03:34:59.511Z,34.07
2024-01-11T03:37:26.065Z,39.97
2024-01-11T03:39:52.556Z,38.75
2024-01-11T03:42:19.163Z,43.55
2024-01-11T03:44:45.733Z,41.50
2024-01-11T03:47:12.372Z,40.27
2024-01-11T03:49:38.903Z,39.92
2024-01-11T03:52:05.795Z,42.72
2024-01-11T03:54:32.320Z,41.50
2024-01-11T03:56:58.901Z,34.90
2024-01-11T03:59:25.391Z,36.83
2024-01-11T04:01:52.426Z,38.22
2024-01-11T04:04:18.931Z,36.90
2024-01-11T04:06:46.524Z,38.88
2024-01-11T04:09:12.952Z,37.53
2024-01-11T04:11:39.527Z,36.07
2024-01-11T04:14:06.129Z,37.08
2024-01-11T04:16:32.676Z,40.20
2024-01-11T04:18:59.626Z,39.25
2024-01-11T04:21:29.606Z,43.13
2024-01-11T04:23:56.561Z,40.37
2024-01-11T04:26:23.232Z,47.78
2024-01-11T04:28:50.783Z,38.70
2024-01-11T04:31:20.391Z,32.25
2024-01-11T04:33:47.400Z,40.70
2024-01-11T04:36:14.116Z,33.13
2024-01-11T04:38:40.784Z,29.30
2024-01-11T04:41:10.860Z,25.50
2024-01-11T04:43:40.629Z,38.38
2024-01-11T04:46:16.945Z,36.33
2024-01-11T04:48:44.091Z,39.93
2024-01-11T04:51:10.949Z,37.38
2024-01-11T04:53:38.280Z,37.47
2024-01-11T04:56:04.900Z,38.20
2024-01-11T04:58:31.425Z,33.20
2024-01-11T05:00:57.936Z,38.00
2024-01-11T05:03:24.452Z,39.45
2024-01-11T05:05:51.090Z,31.95
2024-01-11T05:08:17.749Z,37.20
2024-01-11T05:10:45.795Z,37.40
2024-01-11T05:13:12.330Z,34.37
2024-01-11T05:15:38.941Z,35.90
2024-01-11T05:18:05.889Z,38.15
2024-01-11T05:20:32.550Z,40.83
2024-01-11T05:22:59.034Z,43.13
2024-01-11T05:25:25.770Z,35.50
2024-01-11T05:27:52.322Z,35.72
2024-01-11T05:30:19.026Z,40.53
2024-01-11T05:32:45.682Z,33.28
2024-01-11T05:35:12.377Z,35.80
2024-01-11T05:37:38.974Z,32.00
2024-01-11T05:40:05.922Z,32.10
2024-01-11T05:42:32.459Z,34.40
2024-01-11T05:44:59.095Z,38.70
2024-01-11T05:47:25.599Z,36.30
2024-01-11T05:49:52.368Z,19.50
2024-01-11T05:52:18.832Z,33.08
2024-01-11T05:54:45.519Z,24.67
2024-01-11T05:57:12.211Z,18.63
2024-01-11T05:59:39.102Z,38.30
2024-01-11T06:02:05.658Z,30.77
2024-01-11T06:04:33.348Z,26.75
2024-01-11T06:07:00.474Z,41.40
2024-01-11T06:09:27.193Z,38.90
2024-01-11T06:11:53.831Z,45.50
2024-01-11T06:14:20.383Z,43.50
2024-01-11T06:16:47.032Z,36.13
2024-01-11T06:19:13.574Z,41.90
2024-01-11T06:21:40.098Z,36.45
2024-01-11T06:24:06.534Z,26.52
2024-01-11T06:26:33.055Z,30.00
2024-01-11T06:29:00.015Z,38.35
2024-01-11T06:31:27.054Z,33.63
2024-01-11T06:33:53.549Z,17.63
2024-01-11T06:36:19.960Z,27.77
2024-01-11T06:38:46.722Z,43.30
2024-01-11T06:41:13.356Z,34.63
2024-01-11T06:43:39.887Z,46.42
2024-01-11T06:46:06.482Z,40.83
2024-01-11T06:48:33.665Z,45.22
2024-01-11T06:51:02.283Z,35.33
2024-01-11T06:53:29.374Z,42.35
2024-01-11T06:55:55.888Z,41.78
2024-01-11T06:58:23.449Z,41.03
2024-01-11T07:00:50.992Z,39.70
2024-01-11T07:03:18.059Z,37.73
2024-01-11T07:05:44.936Z,36.47
2024-01-11T07:08:11.641Z,37.55
2024-01-11T07:10:38.990Z,39.63
2024-01-11T07:13:05.635Z,38.60
2024-01-11T07:15:32.347Z,36.70
2024-01-11T07:17:59.206Z,32.85
2024-01-11T07:20:26.041Z,34.08
2024-01-11T07:22:52.612Z,40.22
2024-01-11T07:25:19.071Z,39.08
2024-01-11T07:27:45.887Z,41.17
2024-01-11T07:30:13.001Z,41.80
2024-01-11T07:32:39.872Z,41.28
2024-01-11T07:35:11.431Z,33.13
2024-01-11T07:37:40.055Z,35.70
2024-01-11T07:40:11.302Z,45.90
2024-01-11T07:42:41.421Z,42.45
2024-01-11T07:45:08.737Z,28.77
2024-01-11T07:47:35.208Z,26.13
2024-01-11T07:50:01.957Z,38.58
2024-01-11T07:52:28.608Z,45.40
2024-01-11T07:54:55.497Z,47.15
2024-01-11T07:57:21.895Z,38.67
2024-01-11T07:59:48.565Z,39.80
2024-01-11T08:02:16.450Z,52.65
2024-01-11T08:04:42.993Z,49.23
2024-01-11T08:07:09.761Z,50.17
2024-01-11T08:09:36.998Z,52.63
2024-01-11T08:12:03.863Z,53.85
2024-01-11T08:14:30.759Z,44.50
2024-01-11T08:16:57.294Z,48.07
2024-01-11T08:19:23.856Z,52.13
2024-01-11T08:21:50.382Z,45.53
2024-01-11T08:24:16.846Z,55.63
2024-01-11T08:26:43.523Z,48.47
2024-01-11T08:29:10.602Z,54.47
2024-01-11T08:31:40.059Z,49.22
2024-01-11T08:34:07.167Z,57.20
2024-01-11T08:36:36.549Z,48.03
2024-01-11T08:39:06.803Z,56.70
2024-01-11T08:41:33.897Z,54.73
2024-01-11T08:44:00.567Z,40.00
2024-01-11T08:46:27.405Z,46.88
2024-01-11T08:48:55.172Z,52.20
2024-01-11T08:51:21.662Z,63.03
2024-01-11T08:53:48.423Z,54.63
2024-01-11T08:56:17.280Z,52.45
2024-01-11T08:58:43.945Z,51.40
2024-01-11T09:01:10.501Z,50.13
2024-01-11T09:03:37.075Z,50.97
2024-01-11T09:06:04.540Z,47.17
2024-01-11T09:08:31.266Z,47.13
2024-01-11T09:10:59.546Z,51.63
2024-01-11T09:13:27.183Z,52.70
2024-01-11T09:15:54.049Z,61.60
2024-01-11T09:18:21.157Z,66.67
2024-01-11T09:20:48.791Z,57.95
2024-01-11T09:23:15.720Z,55.50
2024-01-11T09:25:42.232Z,55.10
2024-01-11T09:28:08.889Z,60.42
2024-01-11T09:30:35.565Z,59.33
2024-01-11T09:33:02.399Z,68.05
2024-01-11T09:35:29.151Z,65.28
2024-01-11T09:37:55.825Z,71.22
2024-01-11T09:40:23.433Z,60.35
2024-01-11T09:42:50.537Z,57.07
2024-01-11T09:45:19.421Z,61.35
2024-01-11T09:47:51.802Z,65.55
2024-01-11T09:50:22.621Z,60.72
2024-01-11T09:52:50.334Z,55.85
2024-01-11T09:55:20.095Z,59.57
2024-01-11T09:57:52.687Z,58.90
2024-01-11T10:00:23.719Z,58.65
2024-01-11T10:02:50.891Z,36.38
2024-01-11T10:05:18.759Z,51.67
2024-01-11T10:07:46.819Z,54.13
2024-01-11T10:10:16.590Z,54.40
2024-01-11T10:12:43.269Z,58.05
2024-01-11T10:15:11.195Z,63.53
2024-01-11T10:17:41.472Z,54.80
2024-01-11T10:20:11.945Z,54.73
2024-01-11T10:22:38.721Z,45.47
2024-01-11T10:25:08.898Z,42.80
2024-01-11T10:27:35.527Z,49.92
2024-01-11T10:30:02.008Z,54.63
2024-01-11T10:32:29.436Z,52.50
2024-01-11T10:34:56.126Z,55.13
2024-01-11T10:37:22.902Z,50.28
2024-01-11T10:39:52.277Z,58.08
2024-01-11T10:42:19.259Z,57.35
2024-01-11T10:44:47.754Z,54.90
2024-01-11T10:47:14.686Z,51.47
2024-01-11T10:49:42.529Z,56.97
2024-01-11T10:52:09.172Z,48.22
2024-01-11T10:54:36.156Z,35.88
2024-01-11T10:57:06.288Z,53.50
2024-01-11T10:59:33.239Z,50.50
2024-01-11T11:02:05.820Z,61.63
2024-01-11T11:04:34.159Z,49.28
2024-01-11T11:07:02.284Z,56.83
2024-01-11T11:09:29.397Z,47.27
2024-01-11T11:11:57.668Z,34.30
2024-01-11T11:14:25.538Z,47.63
2024-01-11T11:16:52.899Z,41.92
2024-01-11T11:19:21.164Z,45.83
2024-01-11T11:21:49.348Z,55.57
2024-01-11T11:24:17.807Z,44.42
2024-01-11T11:26:44.394Z,42.13
2024-01-11T11:29:10.943Z,40.25
2024-01-11T11:31:37.977Z,54.40
2024-01-11T11:34:07.844Z,47.63
2024-01-11T11:36:35.011Z,39.45
2024-01-11T11:39:02.444Z,40.17
2024-01-11T11:41:29.012Z,51.83
2024-01-11T11:43:55.540Z,64.03
2024-01-11T11:46:22.044Z,39.97
2024-01-11T11:48:49.176Z,39.97
2024-01-11T11:51:19.550Z,40.30
2024-01-11T11:53:48.912Z,50.45
2024-01-11T11:56:18.308Z,35.95
2024-01-11T11:58:45.605Z,40.73
2024-01-11T12:01:12.386Z,44.28
2024-01-11T12:03:41.268Z,45.97
2024-01-11T12:06:10.071Z,39.78
2024-01-11T12:08:37.314Z,41.85
2024-01-11T12:11:04.516Z,40.97
2024-01-11T12:13:32.169Z,49.00
2024-01-11T12:15:58.772Z,50.40
2024-01-11T12:18:25.708Z,41.10
2024-01-11T12:20:54.145Z,46.25
2024-01-11T12:23:20.879Z,45.20
2024-01-11T12:25:48.139Z,30.48
2024-01-11T12:28:15.084Z,41.20
2024-01-11T12:30:41.783Z,26.05
2024-01-11T12:33:09.311Z,24.73
2024-01-11T12:35:36.352Z,32.87
2024-01-11T12:38:06.900Z,31.60
2024-01-11T12:40:34.124Z,23.40
2024-01-11T12:43:00.788Z,31.50
2024-01-11T12:45:27.487Z,33.92
2024-01-11T12:47:56.283Z,36.67
2024-01-11T12:50:26.096Z,35.97
2024-01-11T12:53:09.434Z,36.72
2024-01-11T12:55:45.099Z,37.63
2024-01-11T12:58:25.407Z,43.33
2024-01-11T13:00:52.253Z,38.10
2024-01-11T13:03:20.993Z,38.58
2024-01-11T13:05:48.111Z,42.20
2024-01-11T13:08:15.328Z,34.38
2024-01-11T13:10:43.037Z,45.15
2024-01-11T13:13:10.163Z,56.57
2024-01-11T13:15:40.218Z,48.28
2024-01-11T13:18:06.925Z,42.53
2024-01-11T13:20:33.952Z,52.75
2024-01-11T13:23:16.893Z,45.30
2024-01-11T13:25:43.934Z,45.43
2024-01-11T13:28:12.182Z,54.20
2024-01-11T13:30:39.115Z,46.38
2024-01-11T13:33:06.036Z,45.65
2024-01-11T13:35:32.742Z,40.47
2024-01-11T13:37:59.383Z,46.53
2024-01-11T13:40:25.962Z,47.88
2024-01-11T13:42:52.649Z,53.60
2024-01-11T13:45:19.176Z,50.50
2024-01-11T13:47:46.024Z,46.03
2024-01-11T13:50:15.396Z,48.07
2024-01-11T13:52:42.619Z,44.63
2024-01-11T13:55:11.467Z,49.45
2024-01-11T13:57:38.428Z,41.88
2024-01-11T14:00:05.845Z,42.40
2024-01-11T14:02:33.110Z,46.83
2024-01-11T14:04:59.619Z,43.90
2024-01-11T14:07:26.146Z,41.67
2024-01-11T14:09:52.755Z,42.40
2024-01-11T14:12:19.337Z,44.58
2024-01-11T14:14:45.967Z,48.57
2024-01-11T14:17:12.650Z,51.80
2024-01-11T14:19:39.311Z,49.92
2024-01-11T14:22:06.001Z,41.45
2024-01-11T14:24:36.448Z,54.80
2024-01-11T14:27:03.414Z,50.27
2024-01-11T14:29:30.508Z,52.63
2024-01-11T14:31:57.046Z,46.83
2024-01-11T14:34:25.802Z,45.45
2024-01-11T14:36:53.306Z,44.03
2024-01-11T14:39:20.098Z,42.93
2024-01-11T14:41:46.977Z,44.67
2024-01-11T14:44:13.722Z,44.28
2024-01-11T14:46:40.218Z,40.78
2024-01-11T14:49:09.169Z,42.03
2024-01-11T14:51:38.240Z,45.60
2024-01-11T14:54:05.372Z,42.30
2024-01-11T14:56:32.243Z,43.33
2024-01-11T14:58:58.792Z,44.15
2024-01-11T15:01:25.371Z,45.22
2024-01-11T15:03:52.208Z,45.20
2024-01-11T15:06:18.941Z,45.25
2024-01-11T15:08:45.699Z,51.55
2024-01-11T15:11:12.282Z,47.45
2024-01-11T15:13:38.888Z,45.53
2024-01-11T15:16:05.435Z,47.27
2024-01-11T15:18:32.728Z,42.08
2024-01-11T15:20:59.744Z,49.67
2024-01-11T15:23:26.372Z,43.60
2024-01-11T15:25:53.401Z,54.00
2024-01-11T15:28:20.039Z,47.63
2024-01-11T15:30:46.970Z,46.53
2024-01-11T15:33:14.337Z,44.33
2024-01-11T15:35:41.060Z,43.95
2024-01-11T15:38:07.559Z,47.63
2024-01-11T15:40:34.131Z,43.67
2024-01-11T15:43:00.695Z,48.83
2024-01-11T15:45:27.274Z,47.65
2024-01-11T15:47:53.957Z,47.95
2024-01-11T15:50:20.540Z,47.83
2024-01-11T15:52:47.117Z,53.30
2024-01-11T15:55:14.067Z,47.50
2024-01-11T15:57:40.831Z,44.30
2024-01-11T16:00:11.687Z,50.92
2024-01-11T16:02:39.874Z,45.53
2024-01-11T16:05:06.884Z,51.73
2024-01-11T16:07:34.098Z,48.35
2024-01-11T16:10:00.750Z,52.97
2024-01-11T16:12:27.289Z,52.22
2024-01-11T16:14:58.357Z,54.03
2024-01-11T16:17:25.894Z,49.00
2024-01-11T16:19:52.536Z,50.72
2024-01-11T16:22:21.510Z,50.38
2024-01-11T16:24:49.053Z,49.17
2024-01-11T16:27:15.898Z,50.67
2024-01-11T16:29:43.027Z,60.53
2024-01-11T16:32:10.072Z,52.90
2024-01-11T16:34:40.174Z,57.47
2024-01-11T16:37:07.179Z,56.63
2024-01-11T16:39:33.924Z,59.55
2024-01-11T16:42:00.802Z,59.77
2024-01-11T16:44:27.493Z,54.70
2024-01-11T16:46:54.994Z,70.47
2024-01-11T16:49:23.426Z,59.03
2024-01-11T16:51:53.156Z,63.47
2024-01-11T16:54:19.995Z,57.57
2024-01-11T16:56:47.265Z,61.33
2024-01-11T16:59:16.343Z,60.55
2024-01-11T17:01:42.873Z,58.33
2024-01-11T17:04:11.116Z,61.13
2024-01-11T17:06:37.924Z,61.40
2024-01-11T17:09:04.428Z,68.10
2024-01-11T17:11:32.700Z,65.50
2024-01-11T17:13:59.311Z,69.97
2024-01-11T17:16:26.032Z,63.70
2024-01-11T17:18:52.810Z,66.07
2024-01-11T17:21:19.322Z,68.97
2024-01-11T17:23:45.936Z,73.35
2024-01-11T17:26:12.749Z,64.57
2024-01-11T17:28:39.667Z,63.53
2024-01-11T17:31:06.587Z,67.30
2024-01-11T17:33:34.014Z,73.97
2024-01-11T17:36:00.739Z,73.20
2024-01-11T17:38:27.450Z,64.60
2024-01-11T17:40:53.939Z,66.88
2024-01-11T17:43:20.613Z,71.63
2024-01-11T17:45:50.000Z,67.80
2024-01-11T17:48:19.847Z,77.13
2024-01-11T17:50:46.746Z,75.22
2024-01-11T17:53:16.819Z,75.28
2024-01-11T17:55:43.351Z,71.30
2024-01-11T17:58:10.293Z,69.63
2024-01-11T18:00:36.963Z,72.82
2024-01-11T18:03:04.129Z,76.95
2024-01-11T18:05:30.902Z,80.93
2024-01-11T18:07:58.808Z,80.13
2024-01-11T18:10:25.258Z,82.38
2024-01-11T18:12:51.833Z,62.75
2024-01-11T18:15:18.363Z,74.72
2024-01-11T18:17:44.848Z,75.57
2024-01-11T18:20:11.714Z,79.67
2024-01-11T18:22:38.653Z,91.60
2024-01-11T18:25:05.444Z,85.68
2024-01-11T18:27:31.987Z,87.57
2024-01-11T18:29:58.634Z,87.40
2024-01-11T18:32:25.690Z,91.97
2024-01-11T18:34:52.213Z,80.60
2024-01-11T18:37:21.182Z,86.30
2024-01-11T18:39:47.819Z,87.82
2024-01-11T18:42:14.618Z,84.65
2024-01-11T18:44:41.410Z,83.37
2024-01-11T18:47:07.878Z,87.05
2024-01-11T18:49:34.378Z,84.30
2024-01-11T18:52:01.373Z,78.28
2024-01-11T18:54:28.054Z,83.90
2024-01-11T18:56:54.724Z,76.40
2024-01-11T18:59:21.199Z,82.43
2024-01-11T19:01:48.514Z,74.97
2024-01-11T19:04:15.422Z,82.72
2024-01-11T19:06:42.251Z,81.72
2024-01-11T19:09:09.497Z,93.83
2024-01-11T19:11:36.060Z,85.78
2024-01-11T19:14:02.564Z,84.38
2024-01-11T19:16:29.014Z,95.38
2024-01-11T19:18:55.768Z,89.30
2024-01-11T19:21:22.390Z,78.60
2024-01-11T19:23:48.995Z,99.80
2024-01-11T19:26:15.633Z,93.95
2024-01-11T19:28:42.187Z,87.88
2024-01-11T19:31:09.752Z,87.68
2024-01-11T19:33:36.486Z,86.03
2024-01-11T19:36:03.094Z,85.75
2024-01-11T19:38:29.605Z,96.10
2024-01-11T19:40:56.069Z,99.20
2024-01-11T19:43:22.602Z,86.38
2024-01-11T19:45:49.010Z,81.20
2024-01-11T19:48:18.259Z,94.80
2024-01-11T19:50:45.142Z,102.32
2024-01-11T19:53:11.655Z,92.20
2024-01-11T19:55:38.225Z,89.78
2024-01-11T19:58:04.919Z,85.67
2024-01-11T20:00:31.529Z,94.97
2024-01-11T20:02:58.941Z,94.13
2024-01-11T20:05:26.530Z,82.75
2024-01-11T20:07:53.657Z,84.75
2024-01-11T20:10:20.228Z,89.23
2024-01-11T20:12:46.844Z,92.32
2024-01-11T20:15:13.629Z,88.63
2024-01-11T20:17:40.279Z,88.55
2024-01-11T20:20:09.479Z,87.88
2024-01-11T20:22:36.089Z,86.53
2024-01-11T20:25:02.623Z,84.53
2024-01-11T20:27:29.106Z,76.43
2024-01-11T20:29:55.739Z,91.97
2024-01-11T20:32:22.471Z,94.28
2024-01-11T20:34:49.088Z,98.93
2024-01-11T20:37:15.695Z,95.18
2024-01-11T20:39:42.190Z,92.88
2024-01-11T20:42:08.733Z,105.82
2024-01-11T20:44:38.164Z,97.15
2024-01-11T20:47:05.108Z,94.57
2024-01-11T20:49:31.679Z,96.35
2024-01-11T20:52:00.396Z,99.32
2024-01-11T20:54:27.148Z,101.43
2024-01-11T20:56:55.047Z,101.80
2024-01-11T20:59:21.546Z,92.13
2024-01-11T21:01:48.134Z,101.80
2024-01-11T21:04:14.720Z,89.43
2024-01-11T21:06:41.516Z,77.20
2024-01-11T21:09:08.180Z,86.10
2024-01-11T21:11:34.843Z,94.90
2024-01-11T21:14:02.274Z,100.25
2024-01-11T21:16:28.749Z,90.47
2024-01-11T21:18:55.517Z,86.50
2024-01-11T21:21:25.096Z,92.38
2024-01-11T21:23:57.642Z,89.53
2024-01-11T21:26:25.047Z,85.82
2024-01-11T21:28:54.731Z,96.57
2024-01-11T21:31:22.702Z,85.18
2024-01-11T21:33:49.396Z,91.57
2024-01-11T21:36:17.776Z,95.03
2024-01-11T21:38:44.565Z,92.70
2024-01-11T21:41:11.083Z,87.57
2024-01-11T21:43:37.792Z,85.13
2024-01-11T21:46:08.488Z,89.63
2024-01-11T21:48:35.174Z,95.37
2024-01-11T21:51:04.562Z,99.55
2024-01-11T21:53:31.438Z,90.03
2024-01-11T21:55:58.642Z,89.97
2024-01-11T21:58:26.846Z,90.65
2024-01-11T22:00:56.756Z,92.83
2024-01-11T22:03:23.770Z,90.38
2024-01-11T22:05:51.137Z,84.93
2024-01-11T22:08:18.616Z,103.18
2024-01-11T22:10:45.214Z,97.32
2024-01-11T22:13:12.103Z,91.57
2024-01-11T22:15:39.157Z,92.38
2024-01-11T22:18:05.959Z,87.97
2024-01-11T22:20:32.748Z,85.82
2024-01-11T22:23:00.126Z,74.70
2024-01-11T22:25:26.925Z,76.67
2024-01-11T22:27:53.711Z,77.63
2024-01-11T22:30:20.848Z,78.43
2024-01-11T22:32:48.377Z,71.72
2024-01-11T22:35:15.108Z,72.25
2024-01-11T22:37:41.739Z,71.17
2024-01-11T22:40:08.676Z,82.25
2024-01-11T22:42:35.344Z,81.03
2024-01-11T22:45:01.840Z,71.88
2024-01-11T22:47:28.557Z,65.15
2024-01-11T22:49:55.523Z,71.43
2024-01-11T22:52:22.542Z,82.53
2024-01-11T22:54:49.037Z,80.20
2024-01-11T22:57:15.483Z,89.38
2024-01-11T22:59:42.106Z,73.80
2024-01-11T23:02:08.838Z,73.30
2024-01-11T23:04:35.815Z,67.25
2024-01-11T23:07:02.268Z,68.78
2024-01-11T23:09:29.027Z,83.72
2024-01-11T23:11:55.621Z,75.53
2024-01-11T23:14:23.136Z,69.93
2024-01-11T23:16:49.942Z,71.75
2024-01-11T23:19:17.184Z,75.15
2024-01-11T23:21:43.942Z,78.97
2024-01-11T23:24:11.476Z,76.55
2024-01-11T23:26:38.143Z,80.90
2024-01-11T23:29:04.694Z,71.00
2024-01-11T23:31:31.184Z,77.68
2024-01-11T23:33:57.980Z,77.43
2024-01-11T23:36:24.594Z,70.03
2024-01-11T23:38:52.940Z,72.00
2024-01-11T23:41:19.844Z,71.43
2024-01-11T23:43:46.386Z,67.90
2024-01-11T23:46:13.146Z,74.07
2024-01-11T23:48:39.802Z,59.80
2024-01-11T23:51:06.554Z,58.10
2024-01-11T23:53:33.163Z,51.75
2024-01-11T23:55:59.669Z,51.03
2024-01-11T23:58:26.208Z,41.10
